Time;durP1;ratioP1;P1;durP2;ratioP2;P2;SDS_P1;SDS_P2;PMS_P1;PMS_P2;Temp;Humidity;BMP_temperature;BMP_pressure;BME280_temperature;BME280_humidity;BME280_pressure;Samples;Min_cycle;Max_cycle;Signal;HPM_P1;HPM_P2
2022/11/06 00:00:14;;;;;;;0.90;0.90;;;;;;;;;;5091235;28;20184;-73
2022/11/06 00:02:40;;;;;;;0.77;0.77;;;;;;;;;;5091744;28;20170;-72
2022/11/06 00:07:51;;;;;;;0.70;0.70;;;;;;;;;;5091871;28;20185;-72
2022/11/06 00:10:17;;;;;;;1.10;1.10;;;;;;;;;;5091580;28;20562;-72
2022/11/06 00:12:43;;;;;;;0.90;0.90;;;;;;;;;;5095742;28;20169;-73
2022/11/06 00:15:10;;;;;;;0.80;0.80;;;;;;;;;;5095615;28;20176;-73
2022/11/06 00:17:36;;;;;;;0.90;0.90;;;;;;;;;;5095545;28;20208;-72
2022/11/06 00:20:04;;;;;;;0.80;0.80;;;;;;;;;;5094821;28;20541;-72
2022/11/06 00:22:34;;;;;;;0.97;0.97;;;;;;;;;;5095360;28;20264;-72
2022/11/06 00:25:00;;;;;;;0.80;0.80;;;;;;;;;;5095244;28;20735;-72
2022/11/06 00:27:26;;;;;;;0.70;0.70;;;;;;;;;;5095478;28;20181;-73
2022/11/06 00:29:52;;;;;;;0.80;0.80;;;;;;;;;;5094857;28;20181;-72
2022/11/06 00:32:18;;;;;;;1.20;1.10;;;;;;;;;;5095215;28;20198;-73
2022/11/06 00:34:44;;;;;;;1.00;1.00;;;;;;;;;;5095132;28;20181;-73
2022/11/06 00:37:10;;;;;;;1.00;1.00;;;;;;;;;;5094968;28;20178;-73
2022/11/06 00:39:36;;;;;;;0.90;0.90;;;;;;;;;;5094555;28;20531;-73
2022/11/06 00:42:02;;;;;;;0.80;0.80;;;;;;;;;;5095025;28;20292;-73
2022/11/06 00:44:28;;;;;;;0.80;0.80;;;;;;;;;;5094665;28;20745;-73
2022/11/06 00:46:54;;;;;;;0.80;0.80;;;;;;;;;;5094300;28;20590;-72
2022/11/06 00:49:20;;;;;;;0.83;0.83;;;;;;;;;;5094449;28;20177;-73
2022/11/06 00:51:46;;;;;;;0.60;0.60;;;;;;;;;;5093885;28;20652;-72
2022/11/06 00:54:12;;;;;;;0.80;0.80;;;;;;;;;;5094826;28;20178;-72
2022/11/06 00:56:38;;;;;;;0.90;0.90;;;;;;;;;;5094864;28;20170;-73
2022/11/06 00:59:06;;;;;;;0.90;0.90;;;;;;;;;;5094731;28;20177;-72
2022/11/06 01:01:33;;;;;;;0.97;0.97;;;;;;;;;;5094373;28;20201;-72
2022/11/06 01:04:00;;;;;;;0.80;0.80;;;;;;;;;;5094753;28;20173;-71
2022/11/06 01:06:27;;;;;;;0.80;0.80;;;;;;;;;;5094390;28;20308;-72
2022/11/06 01:08:54;;;;;;;1.00;1.00;;;;;;;;;;5094793;28;20184;-71
2022/11/06 01:11:21;;;;;;;0.80;0.80;;;;;;;;;;5093824;28;20224;-72
2022/11/06 01:13:51;;;;;;;0.80;0.80;;;;;;;;;;5094294;28;20174;-72
2022/11/06 01:16:17;;;;;;;0.90;0.90;;;;;;;;;;5094183;28;20627;-72
2022/11/06 01:18:44;;;;;;;0.77;0.77;;;;;;;;;;5094219;28;20403;-72
2022/11/06 01:21:12;;;;;;;0.80;0.80;;;;;;;;;;5093496;28;20592;-72
2022/11/06 01:23:38;;;;;;;0.80;0.80;;;;;;;;;;5093345;28;20166;-72
2022/11/06 01:26:06;;;;;;;0.87;0.87;;;;;;;;;;5094038;28;20693;-72
2022/11/06 01:28:32;;;;;;;0.87;0.87;;;;;;;;;;5094135;28;20200;-72
2022/11/06 01:31:02;;;;;;;1.20;1.10;;;;;;;;;;5093536;28;20596;-73
2022/11/06 01:33:28;;;;;;;1.10;1.10;;;;;;;;;;5093896;28;20198;-72
2022/11/06 01:35:54;;;;;;;1.00;1.00;;;;;;;;;;5093937;28;20555;-72
2022/11/06 01:38:20;;;;;;;0.93;0.93;;;;;;;;;;5094010;28;20219;-71
2022/11/06 01:40:46;;;;;;;1.10;1.10;;;;;;;;;;5093416;28;20193;-72
2022/11/06 01:43:17;;;;;;;0.93;0.93;;;;;;;;;;5093795;28;20723;-72
2022/11/06 01:45:45;;;;;;;0.80;0.80;;;;;;;;;;5093784;28;20674;-72
2022/11/06 01:48:12;;;;;;;1.03;1.03;;;;;;;;;;5093673;28;20185;-72
2022/11/06 01:50:38;;;;;;;0.80;0.80;;;;;;;;;;5093376;28;20338;-72
2022/11/06 01:53:04;;;;;;;0.90;0.90;;;;;;;;;;5093884;28;20185;-73
2022/11/06 01:55:34;;;;;;;0.90;0.90;;;;;;;;;;5093525;28;20634;-72
2022/11/06 01:58:01;;;;;;;1.00;1.00;;;;;;;;;;5093644;28;20178;-72
2022/11/06 02:00:28;;;;;;;1.50;1.40;;;;;;;;;;5092851;28;20559;-72
2022/11/06 02:02:54;;;;;;;0.90;0.90;;;;;;;;;;5093700;28;20182;-72
2022/11/06 02:05:20;;;;;;;0.90;0.90;;;;;;;;;;5093564;28;20252;-72
2022/11/06 02:07:46;;;;;;;1.23;1.13;;;;;;;;;;5093550;28;20181;-72
2022/11/06 02:10:12;;;;;;;1.10;1.10;;;;;;;;;;5092893;28;20185;-73
2022/11/06 02:12:38;;;;;;;1.10;1.10;;;;;;;;;;5093351;28;20224;-72
2022/11/06 02:15:23;;;;;;;1.03;1.03;;;;;;;;;;5093160;28;20184;-72
2022/11/06 02:17:52;;;;;;;1.20;1.10;;;;;;;;;;5093233;28;20273;-72
2022/11/06 02:20:21;;;;;;;1.47;1.37;;;;;;;;;;5092610;28;20182;-72
2022/11/06 02:22:50;;;;;;;1.00;1.00;;;;;;;;;;5093022;28;20177;-72
2022/11/06 02:25:22;;;;;;;1.63;1.53;;;;;;;;;;5092964;28;20209;-72
2022/11/06 02:27:51;;;;;;;1.30;1.20;;;;;;;;;;5093005;28;20173;-72
2022/11/06 02:30:17;;;;;;;1.30;1.20;;;;;;;;;;5092301;28;20546;-72
2022/11/06 02:32:46;;;;;;;1.10;1.10;;;;;;;;;;5092979;28;20169;-73
2022/11/06 02:35:15;;;;;;;1.00;1.00;;;;;;;;;;5092892;28;20235;-72
2022/11/06 02:37:43;;;;;;;1.00;1.00;;;;;;;;;;5093090;28;20516;-72
2022/11/06 02:40:10;;;;;;;0.90;0.90;;;;;;;;;;5092197;28;20201;-72
2022/11/06 02:42:39;;;;;;;2.37;2.17;;;;;;;;;;5092993;28;20185;-72
2022/11/06 02:45:07;;;;;;;1.00;1.00;;;;;;;;;;5092945;28;20189;-72
2022/11/06 02:47:33;;;;;;;1.00;1.00;;;;;;;;;;5092899;28;20260;-72
2022/11/06 02:50:10;;;;;;;1.50;1.40;;;;;;;;;;5092224;28;20271;-72
2022/11/06 02:52:41;;;;;;;1.20;1.20;;;;;;;;;;5092694;28;20184;-72
2022/11/06 02:55:07;;;;;;;1.30;1.20;;;;;;;;;;5092495;28;20612;-72
2022/11/06 02:57:35;;;;;;;1.00;1.00;;;;;;;;;;5092677;28;20261;-72
2022/11/06 03:00:05;;;;;;;1.40;1.30;;;;;;;;;;5091987;28;20182;-72
2022/11/06 03:02:35;;;;;;;1.23;1.13;;;;;;;;;;5092433;28;20722;-72
2022/11/06 03:05:28;;;;;;;1.70;1.60;;;;;;;;;;5092272;28;20178;-72
2022/11/06 03:08:02;;;;;;;2.20;2.00;;;;;;;;;;5076176;28;20182;-72
2022/11/06 03:10:30;;;;;;;1.63;1.53;;;;;;;;;;5092493;28;20198;-72
2022/11/06 03:12:57;;;;;;;1.60;1.50;;;;;;;;;;5092830;28;20180;-72
2022/11/06 03:15:42;;;;;;;0.87;0.87;;;;;;;;;;5092288;28;20189;-71
2022/11/06 03:18:14;;;;;;;1.47;1.37;;;;;;;;;;5092259;28;20197;-72
2022/11/06 03:20:42;;;;;;;1.40;1.30;;;;;;;;;;5091868;28;20220;-71
2022/11/06 03:23:15;;;;;;;1.00;1.00;;;;;;;;;;5092238;28;20185;-71
2022/11/06 03:25:41;;;;;;;1.00;1.00;;;;;;;;;;5091958;28;20209;-71
2022/11/06 03:28:12;;;;;;;1.10;1.10;;;;;;;;;;5091843;28;20170;-71
2022/11/06 03:30:42;;;;;;;1.40;1.30;;;;;;;;;;5091544;28;20202;-71
2022/11/06 03:33:27;;;;;;;1.50;1.40;;;;;;;;;;5091875;28;20630;-72
2022/11/06 03:35:56;;;;;;;1.50;1.40;;;;;;;;;;5091896;28;20200;-73
2022/11/06 03:38:27;;;;;;;1.50;1.40;;;;;;;;;;5091740;28;20177;-72
2022/11/06 03:40:57;;;;;;;1.40;1.30;;;;;;;;;;5091415;28;20296;-72
2022/11/06 03:43:26;;;;;;;1.00;1.00;;;;;;;;;;5091960;28;20177;-72
2022/11/06 03:45:52;;;;;;;2.10;2.00;;;;;;;;;;5091100;28;20567;-72
2022/11/06 03:48:24;;;;;;;1.40;1.30;;;;;;;;;;5091897;28;20170;-72
2022/11/06 03:50:56;;;;;;;1.00;1.00;;;;;;;;;;5091076;28;20190;-72
2022/11/06 03:53:28;;;;;;;1.50;1.40;;;;;;;;;;5091859;28;20178;-72
2022/11/06 03:55:56;;;;;;;1.70;1.60;;;;;;;;;;5091711;28;20181;-71
2022/11/06 03:58:24;;;;;;;1.23;1.20;;;;;;;;;;5091799;28;20174;-72
2022/11/06 04:00:51;;;;;;;1.50;1.40;;;;;;;;;;5091023;28;20311;-72
2022/11/06 04:03:23;;;;;;;1.70;1.60;;;;;;;;;;5091484;28;20201;-71
2022/11/06 04:05:53;;;;;;;1.60;1.50;;;;;;;;;;5091674;28;20214;-71
2022/11/06 04:13:59;;;;;;;0.97;0.97;;;;;;;;;;5091496;28;20664;-73
2022/11/06 04:16:26;;;;;;;1.50;1.40;;;;;;;;;;5091657;28;20185;-72
2022/11/06 04:18:52;;;;;;;1.00;1.00;;;;;;;;;;5091846;28;20212;-72
2022/11/06 04:21:21;;;;;;;1.47;1.37;;;;;;;;;;5090955;28;20550;-72
2022/11/06 04:27:11;;;;;;;1.70;1.60;;;;;;;;;;5091345;28;20220;-72
2022/11/06 04:29:48;;;;;;;1.13;1.13;;;;;;;;;;5090596;28;20201;-72
2022/11/06 04:32:22;;;;;;;0.90;0.90;;;;;;;;;;5090982;28;20205;-72
2022/11/06 04:35:07;;;;;;;0.90;0.90;;;;;;;;;;5091419;28;20166;-72
2022/11/06 04:37:41;;;;;;;0.80;0.80;;;;;;;;;;5091459;28;20181;-72
2022/11/06 04:40:25;;;;;;;0.97;0.97;;;;;;;;;;5090630;28;20177;-72
2022/11/06 04:42:57;;;;;;;1.37;1.27;;;;;;;;;;5091328;28;20203;-72
2022/11/06 04:45:25;;;;;;;1.30;1.20;;;;;;;;;;5090963;28;20221;-72
2022/11/06 04:47:51;;;;;;;1.00;1.00;;;;;;;;;;5091383;28;20174;-72
2022/11/06 04:50:19;;;;;;;1.40;1.30;;;;;;;;;;5090622;28;20176;-72
2022/11/06 04:52:45;;;;;;;1.13;1.13;;;;;;;;;;5091240;28;20222;-71
2022/11/06 04:55:11;;;;;;;1.10;1.10;;;;;;;;;;5091129;28;20178;-72
2022/11/06 04:57:37;;;;;;;1.03;1.03;;;;;;;;;;5092210;28;20178;-72
2022/11/06 05:00:05;;;;;;;1.00;1.00;;;;;;;;;;5092921;28;20178;-72
2022/11/06 05:02:31;;;;;;;1.30;1.20;;;;;;;;;;5094726;28;20185;-72
2022/11/06 05:04:57;;;;;;;1.10;1.10;;;;;;;;;;5094430;28;20178;-72
2022/11/06 05:07:23;;;;;;;1.20;1.10;;;;;;;;;;5094478;28;20178;-72
2022/11/06 05:09:49;;;;;;;1.27;1.17;;;;;;;;;;5094054;28;20178;-73
2022/11/06 05:12:15;;;;;;;0.80;0.80;;;;;;;;;;5094316;28;20247;-73
2022/11/06 05:14:41;;;;;;;1.20;1.13;;;;;;;;;;5094661;28;20690;-73
2022/11/06 05:17:07;;;;;;;1.00;1.00;;;;;;;;;;5094423;28;20178;-73
2022/11/06 05:19:32;;;;;;;1.00;1.00;;;;;;;;;;5093861;28;20192;-73
2022/11/06 05:24:43;;;;;;;1.00;1.00;;;;;;;;;;5094337;28;20223;-73
2022/11/06 05:27:09;;;;;;;1.30;1.20;;;;;;;;;;5094373;28;20209;-73
2022/11/06 05:29:35;;;;;;;1.00;1.00;;;;;;;;;;5093785;28;20182;-73
2022/11/06 05:32:01;;;;;;;1.23;1.17;;;;;;;;;;5094112;28;20221;-74
2022/11/06 05:34:27;;;;;;;1.30;1.20;;;;;;;;;;5094138;28;20192;-73
2022/11/06 05:36:53;;;;;;;1.20;1.10;;;;;;;;;;5094047;28;20170;-73
2022/11/06 05:39:19;;;;;;;1.30;1.20;;;;;;;;;;5093919;28;20262;-74
2022/11/06 05:41:45;;;;;;;1.53;1.43;;;;;;;;;;5093674;28;20185;-73
2022/11/06 05:44:11;;;;;;;1.60;1.50;;;;;;;;;;5094088;28;20177;-73
2022/11/06 05:46:36;;;;;;;1.37;1.27;;;;;;;;;;5093667;28;20598;-73
2022/11/06 05:49:02;;;;;;;1.50;1.40;;;;;;;;;;5093870;28;20639;-74
2022/11/06 05:51:28;;;;;;;1.40;1.30;;;;;;;;;;5093001;28;20196;-73
2022/11/06 05:53:54;;;;;;;1.40;1.30;;;;;;;;;;5093732;28;20196;-73
2022/11/06 05:56:20;;;;;;;1.53;1.43;;;;;;;;;;5093894;28;20170;-73
2022/11/06 05:58:46;;;;;;;1.60;1.50;;;;;;;;;;5093887;28;20193;-73
2022/11/06 06:01:12;;;;;;;0.90;0.90;;;;;;;;;;5093154;28;20205;-73
2022/11/06 06:03:38;;;;;;;1.33;1.27;;;;;;;;;;5093541;28;20235;-73
2022/11/06 06:06:04;;;;;;;1.40;1.30;;;;;;;;;;5093329;28;20210;-73
2022/11/06 06:08:30;;;;;;;1.50;1.40;;;;;;;;;;5092886;28;20213;-73
2022/11/06 06:10:56;;;;;;;1.50;1.40;;;;;;;;;;5092836;28;20229;-73
2022/11/06 06:13:22;;;;;;;1.70;1.60;;;;;;;;;;5093400;28;20170;-73
2022/11/06 06:15:48;;;;;;;0.90;0.90;;;;;;;;;;5093379;28;20184;-73
2022/11/06 06:18:14;;;;;;;1.00;1.00;;;;;;;;;;5093183;28;20577;-73
2022/11/06 06:20:40;;;;;;;1.33;1.23;;;;;;;;;;5092666;28;20654;-72
2022/11/06 06:23:06;;;;;;;1.10;1.10;;;;;;;;;;5093113;28;20720;-73
2022/11/06 06:25:32;;;;;;;1.70;1.60;;;;;;;;;;5093209;28;20197;-72
2022/11/06 06:27:58;;;;;;;1.63;1.53;;;;;;;;;;5093188;28;20170;-72
2022/11/06 06:30:24;;;;;;;1.40;1.30;;;;;;;;;;5092594;28;20194;-73
2022/11/06 06:32:51;;;;;;;1.30;1.20;;;;;;;;;;5092689;28;20169;-72
2022/11/06 06:35:17;;;;;;;0.93;0.93;;;;;;;;;;5092967;28;20173;-72
2022/11/06 06:37:49;;;;;;;1.10;1.10;;;;;;;;;;5092810;28;20178;-72
2022/11/06 06:40:15;;;;;;;1.40;1.30;;;;;;;;;;5092514;28;20197;-73
2022/11/06 06:42:41;;;;;;;1.20;1.13;;;;;;;;;;5092701;28;20239;-72
2022/11/06 06:45:07;;;;;;;1.00;1.00;;;;;;;;;;5092681;28;20182;-73
2022/11/06 06:47:33;;;;;;;1.00;1.00;;;;;;;;;;5092739;28;20619;-72
2022/11/06 06:49:59;;;;;;;1.60;1.50;;;;;;;;;;5092088;28;20213;-72
2022/11/06 06:52:25;;;;;;;1.90;1.80;;;;;;;;;;5092400;28;20197;-73
2022/11/06 06:54:51;;;;;;;1.40;1.30;;;;;;;;;;5092978;28;20235;-73
2022/11/06 06:57:17;;;;;;;1.30;1.20;;;;;;;;;;5092712;28;20174;-73
2022/11/06 06:59:43;;;;;;;1.37;1.30;;;;;;;;;;5092110;28;20177;-73
2022/11/06 07:02:12;;;;;;;1.60;1.50;;;;;;;;;;5092424;28;20536;-73
2022/11/06 07:04:38;;;;;;;1.30;1.20;;;;;;;;;;5108630;28;20184;-74
2022/11/06 07:07:04;;;;;;;1.30;1.20;;;;;;;;;;5112915;28;20209;-73
2022/11/06 07:09:30;;;;;;;1.20;1.20;;;;;;;;;;5112121;28;20184;-73
2022/11/06 07:11:57;;;;;;;1.27;1.17;;;;;;;;;;5112787;28;20193;-73
2022/11/06 07:14:23;;;;;;;1.30;1.20;;;;;;;;;;5111914;28;20169;-73
2022/11/06 07:16:48;;;;;;;1.80;1.70;;;;;;;;;;5111574;28;20196;-73
2022/11/06 07:19:14;;;;;;;0.90;0.90;;;;;;;;;;5111393;28;20277;-73
2022/11/06 07:21:40;;;;;;;1.30;1.20;;;;;;;;;;5110167;28;20254;-74
2022/11/06 07:24:06;;;;;;;1.40;1.30;;;;;;;;;;5112314;28;20196;-74
2022/11/06 07:26:32;;;;;;;1.60;1.50;;;;;;;;;;5112529;28;20205;-74
2022/11/06 07:28:58;;;;;;;1.40;1.30;;;;;;;;;;5111190;28;20173;-74
2022/11/06 07:31:24;;;;;;;1.40;1.30;;;;;;;;;;5110894;28;20303;-74
2022/11/06 07:33:50;;;;;;;1.40;1.30;;;;;;;;;;5111614;28;20173;-73
2022/11/06 07:36:16;;;;;;;1.50;1.40;;;;;;;;;;5112434;28;20268;-74
2022/11/06 07:38:42;;;;;;;1.47;1.37;;;;;;;;;;5110909;28;20196;-74
2022/11/06 07:41:10;;;;;;;1.17;1.17;;;;;;;;;;5111706;28;20211;-74
2022/11/06 07:43:37;;;;;;;1.60;1.50;;;;;;;;;;5109465;28;20161;-73
2022/11/06 07:46:04;;;;;;;2.63;2.43;;;;;;;;;;5111881;28;20205;-74
2022/11/06 07:48:30;;;;;;;1.80;1.70;;;;;;;;;;5112066;28;20256;-74
2022/11/06 07:50:56;;;;;;;1.40;1.30;;;;;;;;;;5111918;28;20196;-73
2022/11/06 07:53:22;;;;;;;1.63;1.53;;;;;;;;;;5103572;28;20538;-74
2022/11/06 07:55:52;;;;;;;1.50;1.40;;;;;;;;;;5103947;28;20207;-74
2022/11/06 07:58:18;;;;;;;1.53;1.43;;;;;;;;;;5107603;28;20188;-73
2022/11/06 08:00:54;;;;;;;1.17;1.13;;;;;;;;;;5111378;28;20749;-74
2022/11/06 08:03:21;;;;;;;1.70;1.60;;;;;;;;;;5112138;28;20176;-72
2022/11/06 08:05:47;;;;;;;1.83;1.73;;;;;;;;;;5112243;28;20201;-72
2022/11/06 08:08:13;;;;;;;1.50;1.40;;;;;;;;;;5112254;28;20180;-74
2022/11/06 08:10:42;;;;;;;2.13;2.03;;;;;;;;;;5113057;28;20193;-73
2022/11/06 08:13:08;;;;;;;1.07;1.07;;;;;;;;;;5112089;28;20264;-76
2022/11/06 08:15:37;;;;;;;1.17;1.17;;;;;;;;;;5108759;28;20181;-74
2022/11/06 08:18:03;;;;;;;1.40;1.30;;;;;;;;;;5108481;28;20272;-73
2022/11/06 08:20:29;;;;;;;1.37;1.30;;;;;;;;;;5102554;28;20252;-73
2022/11/06 08:22:59;;;;;;;1.37;1.27;;;;;;;;;;5106263;28;20501;-73
2022/11/06 08:25:25;;;;;;;1.90;1.80;;;;;;;;;;5101569;28;20292;-73
2022/11/06 08:27:54;;;;;;;1.30;1.23;;;;;;;;;;5100846;28;20205;-73
2022/11/06 08:30:20;;;;;;;1.10;1.10;;;;;;;;;;5109103;28;20189;-74
2022/11/06 08:32:46;;;;;;;1.43;1.33;;;;;;;;;;5111991;28;20236;-74
2022/11/06 08:35:11;;;;;;;1.60;1.50;;;;;;;;;;5121524;28;20530;-74
2022/11/06 08:37:37;;;;;;;1.37;1.27;;;;;;;;;;5119032;28;20672;-74
2022/11/06 08:40:04;;;;;;;1.40;1.30;;;;;;;;;;5117927;28;20173;-74
2022/11/06 08:42:29;;;;;;;1.00;1.00;;;;;;;;;;5117445;28;20230;-73
2022/11/06 08:44:55;;;;;;;1.07;1.07;;;;;;;;;;5117740;28;20562;-74
2022/11/06 08:47:22;;;;;;;1.37;1.27;;;;;;;;;;5116793;28;20211;-73
2022/11/06 08:49:48;;;;;;;0.90;0.90;;;;;;;;;;5118374;28;20193;-73
2022/11/06 08:52:14;;;;;;;0.80;0.80;;;;;;;;;;5110690;28;20208;-73
2022/11/06 08:54:40;;;;;;;1.00;1.00;;;;;;;;;;5116300;28;20223;-72
2022/11/06 08:57:06;;;;;;;0.70;0.70;;;;;;;;;;5115771;28;20177;-72
2022/11/06 08:59:32;;;;;;;0.70;0.70;;;;;;;;;;5115726;28;20260;-74
2022/11/06 09:01:59;;;;;;;0.80;0.80;;;;;;;;;;5101424;28;20224;-73
2022/11/06 09:04:25;;;;;;;0.73;0.73;;;;;;;;;;5098681;28;20240;-73
2022/11/06 09:06:51;;;;;;;0.70;0.70;;;;;;;;;;5097034;28;20210;-73
2022/11/06 09:09:17;;;;;;;0.73;0.73;;;;;;;;;;5101936;28;20181;-73
2022/11/06 09:11:43;;;;;;;0.80;0.80;;;;;;;;;;5117328;28;20669;-74
2022/11/06 09:14:09;;;;;;;0.80;0.80;;;;;;;;;;5117484;28;20211;-75
2022/11/06 09:16:35;;;;;;;1.00;1.00;;;;;;;;;;5116559;28;20173;-74
2022/11/06 09:19:01;;;;;;;1.00;1.00;;;;;;;;;;5115421;28;20189;-74
2022/11/06 09:21:27;;;;;;;0.90;0.90;;;;;;;;;;5114728;28;20189;-74
2022/11/06 09:23:53;;;;;;;0.70;0.70;;;;;;;;;;5111781;28;20182;-73
2022/11/06 09:26:19;;;;;;;0.70;0.70;;;;;;;;;;5098880;28;20292;-74
2022/11/06 09:28:46;;;;;;;0.60;0.60;;;;;;;;;;5107091;28;20180;-74
2022/11/06 09:31:12;;;;;;;0.80;0.80;;;;;;;;;;5114109;28;20199;-74
2022/11/06 09:33:38;;;;;;;0.90;0.90;;;;;;;;;;5114689;28;20255;-74
2022/11/06 09:36:04;;;;;;;0.80;0.80;;;;;;;;;;5114617;28;20192;-74
2022/11/06 09:38:31;;;;;;;0.77;0.77;;;;;;;;;;5113711;28;20233;-74
2022/11/06 09:40:58;;;;;;;0.60;0.60;;;;;;;;;;5113650;28;20208;-74
2022/11/06 09:43:43;;;;;;;0.70;0.70;;;;;;;;;;5113784;28;20266;-74
2022/11/06 09:46:15;;;;;;;0.60;0.60;;;;;;;;;;5114396;28;20548;-74
2022/11/06 09:48:42;;;;;;;0.70;0.70;;;;;;;;;;5114387;28;20162;-74
2022/11/06 09:51:16;;;;;;;0.57;0.57;;;;;;;;;;5113708;28;20197;-74
2022/11/06 09:53:54;;;;;;;0.50;0.50;;;;;;;;;;5114184;28;20618;-74
2022/11/06 09:56:24;;;;;;;0.50;0.50;;;;;;;;;;5114066;28;20645;-74
2022/11/06 09:58:50;;;;;;;0.40;0.40;;;;;;;;;;5114172;28;20181;-74
2022/11/06 10:01:21;;;;;;;0.40;0.40;;;;;;;;;;5113436;28;20542;-74
2022/11/06 10:03:58;;;;;;;0.50;0.50;;;;;;;;;;5113856;28;20510;-75
2022/11/06 10:06:24;;;;;;;0.30;0.30;;;;;;;;;;5114002;28;20213;-74
2022/11/06 10:08:52;;;;;;;0.40;0.40;;;;;;;;;;5114039;28;20174;-75
2022/11/06 10:11:18;;;;;;;0.40;0.40;;;;;;;;;;5113188;28;20566;-74
2022/11/06 10:13:44;;;;;;;0.40;0.40;;;;;;;;;;5113744;28;20184;-74
2022/11/06 10:16:21;;;;;;;0.30;0.30;;;;;;;;;;5123357;28;20175;-75
2022/11/06 10:18:47;;;;;;;0.40;0.40;;;;;;;;;;5207522;22;20213;-78
2022/11/06 10:21:22;;;;;;;0.40;0.40;;;;;;;;;;5118494;28;20560;-77
2022/11/06 10:23:56;;;;;;;0.37;0.37;;;;;;;;;;5119281;28;20168;-78
2022/11/06 10:26:28;;;;;;;0.30;0.30;;;;;;;;;;5120606;28;20237;-77
2022/11/06 10:28:57;;;;;;;0.30;0.30;;;;;;;;;;5114365;28;20195;-77
2022/11/06 10:31:23;;;;;;;0.30;0.30;;;;;;;;;;5113568;28;20193;-78
2022/11/06 10:33:56;;;;;;;0.40;0.40;;;;;;;;;;5113596;28;20327;-76
2022/11/06 10:36:38;;;;;;;0.30;0.30;;;;;;;;;;5113084;28;20181;-76
2022/11/06 10:39:09;;;;;;;0.40;0.40;;;;;;;;;;5112850;28;20470;-75
2022/11/06 10:41:37;;;;;;;0.40;0.40;;;;;;;;;;5112443;28;20193;-76
2022/11/06 10:44:03;;;;;;;0.40;0.40;;;;;;;;;;5113093;28;20273;-76
2022/11/06 10:46:36;;;;;;;0.30;0.30;;;;;;;;;;5112947;28;20290;-75
2022/11/06 10:49:15;;;;;;;0.40;0.40;;;;;;;;;;5112706;28;20676;-76
2022/11/06 10:51:50;;;;;;;0.40;0.40;;;;;;;;;;5112292;28;20193;-76
2022/11/06 10:54:21;;;;;;;0.40;0.40;;;;;;;;;;5112971;28;20223;-76
2022/11/06 10:56:59;;;;;;;0.30;0.30;;;;;;;;;;5112363;28;20169;-75
2022/11/06 10:59:25;;;;;;;0.40;0.40;;;;;;;;;;5112377;28;20187;-76
2022/11/06 11:01:51;;;;;;;0.40;0.40;;;;;;;;;;5112409;28;20197;-75
2022/11/06 11:04:17;;;;;;;0.60;0.60;;;;;;;;;;5112480;28;20634;-75
2022/11/06 11:06:43;;;;;;;0.40;0.40;;;;;;;;;;5112731;28;20212;-75
2022/11/06 11:09:29;;;;;;;0.40;0.40;;;;;;;;;;5112369;28;20169;-75
2022/11/06 11:11:55;;;;;;;0.60;0.60;;;;;;;;;;5111772;28;20212;-76
2022/11/06 11:14:23;;;;;;;0.50;0.50;;;;;;;;;;5112329;28;20174;-77
2022/11/06 11:16:48;;;;;;;0.50;0.50;;;;;;;;;;5113006;28;20176;-76
2022/11/06 11:19:14;;;;;;;0.40;0.40;;;;;;;;;;5112618;28;20200;-76
2022/11/06 11:21:52;;;;;;;0.40;0.40;;;;;;;;;;5111450;28;20673;-76
2022/11/06 11:24:18;;;;;;;0.50;0.50;;;;;;;;;;5112376;28;20173;-76
2022/11/06 11:26:46;;;;;;;0.50;0.50;;;;;;;;;;5111986;28;20304;-76
2022/11/06 11:29:23;;;;;;;0.40;0.40;;;;;;;;;;5111972;28;20177;-76
2022/11/06 11:31:51;;;;;;;0.50;0.50;;;;;;;;;;5111931;28;20192;-76
2022/11/06 11:34:22;;;;;;;0.50;0.50;;;;;;;;;;5112380;28;20196;-76
2022/11/06 11:36:56;;;;;;;0.40;0.40;;;;;;;;;;5111836;28;20650;-77
2022/11/06 11:39:24;;;;;;;0.30;0.30;;;;;;;;;;5111436;28;20675;-76
2022/11/06 11:41:50;;;;;;;0.40;0.40;;;;;;;;;;5111500;28;20192;-76
2022/11/06 11:44:19;;;;;;;0.40;0.40;;;;;;;;;;5112008;28;20701;-76
2022/11/06 11:46:45;;;;;;;0.37;0.37;;;;;;;;;;5111584;28;20209;-77
2022/11/06 11:49:25;;;;;;;0.33;0.33;;;;;;;;;;5111705;28;20306;-76
2022/11/06 11:51:51;;;;;;;0.30;0.30;;;;;;;;;;5111617;28;20188;-77
2022/11/06 11:54:19;;;;;;;0.40;0.40;;;;;;;;;;5112189;28;20208;-76
2022/11/06 11:56:55;;;;;;;0.30;0.30;;;;;;;;;;5111594;28;20779;-76
2022/11/06 11:59:24;;;;;;;0.40;0.40;;;;;;;;;;5111756;28;20172;-74
2022/11/06 12:01:49;;;;;;;0.40;0.40;;;;;;;;;;5111537;28;20195;-75
2022/11/06 12:04:18;;;;;;;0.30;0.30;;;;;;;;;;5111657;28;20181;-74
2022/11/06 12:06:58;;;;;;;0.30;0.30;;;;;;;;;;5112998;28;20212;-74
2022/11/06 12:09:25;;;;;;;0.40;0.40;;;;;;;;;;5115787;28;20173;-74
2022/11/06 12:11:52;;;;;;;0.40;0.40;;;;;;;;;;5115418;28;20684;-75
2022/11/06 12:14:24;;;;;;;0.40;0.40;;;;;;;;;;5115801;28;20173;-75
2022/11/06 12:16:51;;;;;;;0.40;0.40;;;;;;;;;;5115620;28;20169;-74
2022/11/06 12:19:18;;;;;;;0.30;0.30;;;;;;;;;;5115547;28;20565;-75
2022/11/06 12:21:45;;;;;;;0.40;0.40;;;;;;;;;;5115277;28;20196;-75
2022/11/06 12:24:34;;;;;;;0.30;0.30;;;;;;;;;;5115750;28;20172;-75
2022/11/06 12:27:04;;;;;;;0.40;0.40;;;;;;;;;;5115642;28;20227;-75
2022/11/06 12:29:30;;;;;;;0.33;0.33;;;;;;;;;;5115068;28;20180;-74
2022/11/06 12:32:06;;;;;;;0.30;0.30;;;;;;;;;;5115165;28;20200;-74
2022/11/06 12:34:45;;;;;;;0.30;0.30;;;;;;;;;;5115359;28;20172;-75
2022/11/06 12:37:17;;;;;;;0.33;0.33;;;;;;;;;;5115564;28;20199;-75
2022/11/06 12:39:46;;;;;;;0.30;0.30;;;;;;;;;;5115280;28;20173;-74
2022/11/06 12:42:13;;;;;;;0.30;0.30;;;;;;;;;;5115625;28;20212;-75
2022/11/06 12:44:39;;;;;;;0.37;0.37;;;;;;;;;;5115099;28;20184;-74
2022/11/06 12:47:12;;;;;;;0.50;0.50;;;;;;;;;;5115092;28;20262;-74
2022/11/06 12:49:38;;;;;;;0.40;0.40;;;;;;;;;;5114819;28;20180;-74
2022/11/06 12:52:09;;;;;;;0.50;0.50;;;;;;;;;;5115157;28;20192;-73
2022/11/06 12:54:44;;;;;;;0.50;0.50;;;;;;;;;;5114954;28;20173;-75
2022/11/06 12:57:28;;;;;;;0.50;0.50;;;;;;;;;;5115123;28;20176;-75
2022/11/06 13:00:04;;;;;;;0.50;0.50;;;;;;;;;;5114620;28;20630;-74
2022/11/06 13:02:45;;;;;;;0.40;0.40;;;;;;;;;;5115020;28;20258;-75
2022/11/06 13:05:18;;;;;;;0.70;0.70;;;;;;;;;;5115099;28;20244;-74
2022/11/06 13:08:04;;;;;;;0.40;0.40;;;;;;;;;;5114852;28;20169;-74
2022/11/06 13:10:44;;;;;;;0.57;0.57;;;;;;;;;;5113889;28;20222;-74
2022/11/06 13:13:19;;;;;;;0.50;0.50;;;;;;;;;;5114992;28;20177;-75
2022/11/06 13:16:00;;;;;;;0.40;0.40;;;;;;;;;;5114585;28;20179;-76
2022/11/06 13:18:25;;;;;;;0.50;0.50;;;;;;;;;;5113375;28;20226;-75
2022/11/06 13:20:57;;;;;;;0.50;0.50;;;;;;;;;;5114076;28;20224;-74
2022/11/06 13:23:35;;;;;;;0.50;0.50;;;;;;;;;;5114497;28;20177;-74
2022/11/06 13:26:23;;;;;;;0.50;0.50;;;;;;;;;;5114248;28;20532;-74
2022/11/06 13:28:55;;;;;;;0.60;0.60;;;;;;;;;;5114489;28;20310;-74
2022/11/06 13:31:24;;;;;;;0.50;0.50;;;;;;;;;;5113791;28;20193;-75
2022/11/06 13:33:55;;;;;;;0.50;0.50;;;;;;;;;;5114321;28;20173;-74
2022/11/06 13:36:22;;;;;;;0.60;0.60;;;;;;;;;;5113968;28;20180;-75
2022/11/06 13:38:48;;;;;;;0.60;0.60;;;;;;;;;;5114043;28;20180;-74
2022/11/06 13:41:25;;;;;;;0.40;0.40;;;;;;;;;;5113768;28;20193;-74
2022/11/06 13:44:01;;;;;;;0.50;0.50;;;;;;;;;;5114266;28;20205;-75
2022/11/06 13:46:30;;;;;;;0.60;0.60;;;;;;;;;;5114145;28;20277;-75
2022/11/06 13:48:56;;;;;;;0.50;0.50;;;;;;;;;;5113817;28;20173;-75
2022/11/06 13:51:35;;;;;;;0.50;0.50;;;;;;;;;;5113777;28;20258;-75
2022/11/06 13:54:20;;;;;;;0.47;0.47;;;;;;;;;;5114430;28;20173;-75
2022/11/06 13:56:55;;;;;;;0.70;0.70;;;;;;;;;;5113864;28;20181;-75
2022/11/06 13:59:34;;;;;;;0.60;0.60;;;;;;;;;;5114004;28;20176;-76
2022/11/06 14:02:11;;;;;;;0.40;0.40;;;;;;;;;;5113977;28;20193;-75
2022/11/06 14:05:12;;;;;;;0.60;0.60;;;;;;;;;;5113852;28;20276;-75
2022/11/06 14:07:40;;;;;;;0.50;0.50;;;;;;;;;;5113708;28;20188;-75
2022/11/06 14:10:06;;;;;;;0.50;0.50;;;;;;;;;;5112908;28;20629;-75
2022/11/06 14:12:32;;;;;;;0.50;0.50;;;;;;;;;;5113467;28;20279;-75
2022/11/06 14:15:17;;;;;;;0.50;0.50;;;;;;;;;;5113604;28;20204;-75
2022/11/06 14:17:53;;;;;;;0.60;0.60;;;;;;;;;;5113336;28;20188;-75
2022/11/06 14:20:27;;;;;;;0.57;0.57;;;;;;;;;;5112392;28;20184;-74
2022/11/06 14:22:53;;;;;;;0.50;0.50;;;;;;;;;;5113323;28;20181;-77
2022/11/06 14:25:28;;;;;;;0.40;0.40;;;;;;;;;;5113321;28;20248;-76
2022/11/06 14:27:54;;;;;;;0.43;0.43;;;;;;;;;;5113311;28;20688;-75
2022/11/06 14:30:20;;;;;;;0.50;0.50;;;;;;;;;;5112184;28;20215;-76
2022/11/06 14:32:47;;;;;;;0.53;0.53;;;;;;;;;;5112649;28;20204;-75
2022/11/06 14:35:28;;;;;;;0.53;0.53;;;;;;;;;;5113242;28;20200;-75
2022/11/06 14:38:09;;;;;;;0.50;0.50;;;;;;;;;;5113163;28;20339;-75
2022/11/06 14:40:39;;;;;;;0.60;0.60;;;;;;;;;;5112223;28;20673;-75
2022/11/06 14:43:11;;;;;;;0.70;0.70;;;;;;;;;;5112764;28;20199;-75
2022/11/06 14:45:37;;;;;;;0.60;0.60;;;;;;;;;;5113627;27;20257;-76
2022/11/06 14:48:03;;;;;;;0.50;0.50;;;;;;;;;;5132395;27;20401;-75
2022/11/06 14:50:37;;;;;;;0.53;0.53;;;;;;;;;;5132192;27;20200;-75
2022/11/06 14:53:05;;;;;;;0.40;0.40;;;;;;;;;;5132979;27;20182;-75
2022/11/06 14:55:34;;;;;;;0.60;0.60;;;;;;;;;;5133197;27;20641;-77
2022/11/06 14:58:21;;;;;;;0.63;0.63;;;;;;;;;;5112444;27;20184;-76
2022/11/06 15:00:50;;;;;;;0.60;0.60;;;;;;;;;;5104162;28;20225;-76
2022/11/06 15:03:19;;;;;;;0.60;0.60;;;;;;;;;;5096265;28;20178;-75
2022/11/06 15:05:45;;;;;;;0.60;0.60;;;;;;;;;;5092452;28;20237;-77
2022/11/06 15:08:11;;;;;;;0.60;0.60;;;;;;;;;;5097531;28;20177;-77